createdAt,value
2018-01-20T00:01:07.721Z,99.90
2018-01-20T00:03:35.378Z,99.90
2018-01-20T00:06:03.026Z,99.90
2018-01-20T00:08:30.679Z,99.90
2018-01-20T00:11:10.116Z,99.90
2018-01-20T00:13:37.806Z,99.90
2018-01-20T00:16:05.438Z,99.90
2018-01-20T00:18:33.053Z,99.90
2018-01-20T00:21:00.734Z,99.90
2018-01-20T00:23:29.127Z,99.90
2018-01-20T00:26:02.535Z,99.90
2018-01-20T00:28:30.172Z,99.90
2018-01-20T00:30:58.608Z,99.90
2018-01-20T00:33:26.245Z,99.90
2018-01-20T00:35:53.871Z,99.90
2018-01-20T00:38:22.318Z,99.90
2018-01-20T00:40:49.971Z,99.90
2018-01-20T00:43:17.639Z,99.90
2018-01-20T00:45:45.292Z,99.90
2018-01-20T00:48:12.945Z,99.90
2018-01-20T00:50:40.618Z,99.90
2018-01-20T00:53:08.248Z,99.90
2018-01-20T00:55:35.886Z,99.90
2018-01-20T00:58:04.283Z,99.90
2018-01-20T01:00:31.929Z,99.90
2018-01-20T01:03:00.405Z,99.90
2018-01-20T01:05:28.970Z,99.90
2018-01-20T01:07:57.471Z,99.90
2018-01-20T01:10:25.244Z,99.90
2018-01-20T01:12:52.915Z,99.90
2018-01-20T01:15:20.540Z,99.90
2018-01-20T01:17:48.174Z,99.90
2018-01-20T01:20:15.831Z,99.90
2018-01-20T01:22:43.436Z,99.90
2018-01-20T01:25:11.823Z,99.90
2018-01-20T01:27:40.222Z,99.90
2018-01-20T01:30:07.849Z,99.90
2018-01-20T01:32:36.265Z,99.90
2018-01-20T01:35:03.905Z,99.90
2018-01-20T01:37:32.313Z,99.90
2018-01-20T01:40:00.913Z,99.90
2018-01-20T01:42:28.528Z,99.90
2018-01-20T01:44:56.937Z,99.90
2018-01-20T01:47:24.589Z,99.90
2018-01-20T01:49:52.236Z,99.90
2018-01-20T01:52:20.671Z,99.90
2018-01-20T01:54:48.326Z,99.90
2018-01-20T01:57:15.971Z,99.90
2018-01-20T01:59:43.591Z,99.90
2018-01-20T02:02:12.015Z,99.90
2018-01-20T02:04:39.626Z,99.90
2018-01-20T02:07:08.041Z,99.90
2018-01-20T02:09:35.664Z,99.90
2018-01-20T02:12:04.086Z,99.90
2018-01-20T02:14:32.532Z,99.90
2018-01-20T02:17:00.915Z,99.90
2018-01-20T02:19:29.515Z,99.90
2018-01-20T02:21:57.167Z,99.90
2018-01-20T02:24:25.550Z,99.90
2018-01-20T02:26:53.202Z,99.90
2018-01-20T02:29:21.586Z,99.90
2018-01-20T02:31:50.045Z,99.90
2018-01-20T02:34:17.663Z,99.90
2018-01-20T02:36:45.287Z,99.90
2018-01-20T02:39:13.722Z,99.90
2018-01-20T02:41:41.366Z,99.90
2018-01-20T02:44:09.011Z,99.90
2018-01-20T02:46:36.648Z,99.90
2018-01-20T02:49:05.073Z,99.90
2018-01-20T02:51:32.711Z,99.90
2018-01-20T02:54:00.327Z,99.90
2018-01-20T02:56:27.987Z,99.90
2018-01-20T02:58:55.614Z,99.90
2018-01-20T03:01:24.003Z,99.90
2018-01-20T03:03:51.691Z,99.90
2018-01-20T03:06:19.387Z,99.90
2018-01-20T03:08:47.058Z,99.90
2018-01-20T03:11:14.682Z,99.90
2018-01-20T03:13:42.353Z,99.90
2018-01-20T03:16:10.770Z,99.90
2018-01-20T03:18:38.418Z,99.90
2018-01-20T03:21:06.090Z,99.90
2018-01-20T03:23:33.724Z,99.90
2018-01-20T03:26:02.108Z,99.90
2018-01-20T03:28:30.539Z,99.90
2018-01-20T03:30:58.155Z,99.90
2018-01-20T03:33:25.821Z,99.90
2018-01-20T03:35:53.457Z,99.90
2018-01-20T03:38:22.105Z,99.90
2018-01-20T03:40:49.722Z,99.90
2018-01-20T03:43:17.353Z,99.90
2018-01-20T03:45:44.990Z,99.90
2018-01-20T03:48:12.613Z,99.90
2018-01-20T03:50:40.286Z,99.90
2018-01-20T03:53:07.921Z,99.90
2018-01-20T03:55:36.308Z,99.90
2018-01-20T03:58:04.086Z,99.90
2018-01-20T04:00:31.698Z,99.90
2018-01-20T04:02:59.314Z,99.90
2018-01-20T04:05:26.983Z,99.90
2018-01-20T04:07:54.597Z,99.90
2018-01-20T04:10:23.031Z,99.90
2018-01-20T04:12:50.653Z,99.90
2018-01-20T04:15:19.054Z,99.90
2018-01-20T04:17:46.698Z,99.90
2018-01-20T04:20:14.329Z,99.90
2018-01-20T04:22:41.947Z,99.90
2018-01-20T04:25:09.637Z,99.90
2018-01-20T04:27:37.274Z,99.90
2018-01-20T04:30:04.901Z,99.90
2018-01-20T04:32:32.579Z,99.90
2018-01-20T04:35:00.196Z,99.90
2018-01-20T04:37:27.831Z,99.90
2018-01-20T04:39:55.447Z,99.90
2018-01-20T04:42:23.874Z,99.90
2018-01-20T04:44:51.486Z,99.90
2018-01-20T04:47:19.110Z,99.90
2018-01-20T04:49:46.754Z,99.90
2018-01-20T04:52:14.435Z,99.90
2018-01-20T04:54:42.081Z,99.90
2018-01-20T04:57:09.725Z,99.90
2018-01-20T04:59:37.396Z,99.90
2018-01-20T05:02:05.030Z,99.90
2018-01-20T05:04:32.663Z,99.90
2018-01-20T05:07:01.097Z,99.90
2018-01-20T05:09:28.723Z,99.90
2018-01-20T05:11:56.407Z,99.90
2018-01-20T05:14:24.044Z,99.90
2018-01-20T05:16:51.696Z,99.90
2018-01-20T05:19:20.130Z,99.90
2018-01-20T05:21:47.787Z,99.90
2018-01-20T05:24:15.393Z,99.90
2018-01-20T05:26:43.811Z,99.90
2018-01-20T05:29:11.475Z,99.90
2018-01-20T05:31:39.118Z,99.90
2018-01-20T05:34:06.799Z,99.90
2018-01-20T05:36:34.446Z,99.90
2018-01-20T05:39:02.087Z,99.90
2018-01-20T05:41:30.575Z,99.90
2018-01-20T05:43:58.231Z,99.90
2018-01-20T05:46:26.652Z,99.90
2018-01-20T05:48:54.338Z,99.90
2018-01-20T05:51:22.003Z,99.90
2018-01-20T05:53:49.624Z,99.90
2018-01-20T05:56:17.301Z,99.90
2018-01-20T05:58:44.968Z,99.90
2018-01-20T06:01:12.615Z,99.90
2018-01-20T06:03:40.251Z,99.90
2018-01-20T06:06:07.885Z,99.90
2018-01-20T06:08:35.534Z,99.90
2018-01-20T06:11:03.176Z,99.90
2018-01-20T06:13:30.816Z,99.90
2018-01-20T06:15:58.462Z,99.90
2018-01-20T06:18:26.142Z,99.90
2018-01-20T06:20:53.764Z,99.90
2018-01-20T06:23:22.183Z,99.90
2018-01-20T06:25:49.850Z,99.90
2018-01-20T06:28:17.474Z,99.90
2018-01-20T06:30:45.860Z,99.90
2018-01-20T06:33:13.510Z,99.90
2018-01-20T06:35:41.918Z,99.90
2018-01-20T06:38:09.565Z,99.90
2018-01-20T06:40:37.250Z,99.90
2018-01-20T06:43:05.123Z,99.90
2018-01-20T06:45:32.779Z,99.90
2018-01-20T06:48:00.447Z,99.90
2018-01-20T06:50:28.095Z,99.90
2018-01-20T06:52:55.762Z,99.90
2018-01-20T06:55:23.394Z,99.90
2018-01-20T06:57:52.011Z,99.90
2018-01-20T07:00:19.675Z,99.90
2018-01-20T07:02:47.285Z,99.90
2018-01-20T07:05:15.702Z,99.90
2018-01-20T07:07:43.320Z,99.90
2018-01-20T07:10:10.983Z,99.90
2018-01-20T07:12:38.641Z,99.90
2018-01-20T07:15:06.285Z,99.90
2018-01-20T07:17:33.944Z,99.90
2018-01-20T07:20:01.572Z,99.90
2018-01-20T07:22:29.240Z,99.90
2018-01-20T07:24:56.867Z,99.90
2018-01-20T07:27:25.294Z,99.90
2018-01-20T07:29:52.948Z,99.90
2018-01-20T07:32:20.586Z,99.90
2018-01-20T07:34:48.256Z,99.90
2018-01-20T07:37:15.900Z,99.90
2018-01-20T07:39:44.335Z,99.90
2018-01-20T07:42:11.951Z,99.90
2018-01-20T07:44:39.599Z,99.90
2018-01-20T07:47:08.003Z,99.90
2018-01-20T07:49:35.618Z,99.90
2018-01-20T07:52:03.412Z,99.90
2018-01-20T07:54:31.809Z,99.90
2018-01-20T07:56:59.427Z,99.90
2018-01-20T07:59:27.094Z,99.90
2018-01-20T08:01:54.730Z,99.90
2018-01-20T08:04:22.347Z,99.90
2018-01-20T08:06:50.029Z,99.90
2018-01-20T08:09:17.698Z,99.90
2018-01-20T08:11:45.334Z,99.90
2018-01-20T08:14:12.998Z,99.90
2018-01-20T08:16:41.569Z,99.90
2018-01-20T08:19:09.261Z,99.90
2018-01-20T08:21:36.914Z,99.90
2018-01-20T08:24:04.535Z,99.90
2018-01-20T08:26:32.987Z,99.90
2018-01-20T08:29:00.640Z,99.90
2018-01-20T08:31:28.311Z,99.90
2018-01-20T08:33:55.935Z,99.90
2018-01-20T08:36:23.568Z,99.90
2018-01-20T08:38:51.987Z,99.90
2018-01-20T08:41:19.608Z,99.90
2018-01-20T08:43:48.038Z,99.90
2018-01-20T08:46:15.678Z,99.90
2018-01-20T08:48:43.330Z,99.90
2018-01-20T08:51:11.025Z,99.90
2018-01-20T08:53:38.658Z,99.90
2018-01-20T08:56:06.343Z,99.90
2018-01-20T08:58:33.963Z,99.90
2018-01-20T09:01:02.441Z,99.90
2018-01-20T09:03:30.890Z,99.90
2018-01-20T09:05:59.044Z,99.90
2018-01-20T09:08:26.717Z,99.90
2018-01-20T09:10:54.399Z,99.90
2018-01-20T09:13:22.826Z,99.90
2018-01-20T09:15:50.466Z,99.90
2018-01-20T09:18:18.878Z,99.90
2018-01-20T09:20:46.508Z,99.90
2018-01-20T09:23:15.035Z,99.90
2018-01-20T09:25:43.520Z,99.90
2018-01-20T09:28:11.146Z,99.90
2018-01-20T09:30:38.767Z,99.90
2018-01-20T09:33:06.443Z,99.90
2018-01-20T09:35:34.839Z,99.90
2018-01-20T09:38:02.452Z,99.90
2018-01-20T09:40:30.119Z,99.90
2018-01-20T09:42:57.753Z,99.90
2018-01-20T09:45:25.409Z,99.90
2018-01-20T09:47:53.054Z,99.90
2018-01-20T09:50:20.719Z,99.90
2018-01-20T09:52:48.369Z,99.90
2018-01-20T09:55:16.000Z,99.90
2018-01-20T09:57:43.668Z,99.90
2018-01-20T10:00:12.054Z,99.90
2018-01-20T10:02:40.501Z,99.90
2018-01-20T10:05:08.126Z,99.90
2018-01-20T10:07:35.800Z,99.90
2018-01-20T10:10:03.468Z,99.90
2018-01-20T10:12:31.114Z,99.90
2018-01-20T10:14:58.777Z,99.90
2018-01-20T10:17:26.546Z,99.90
2018-01-20T10:19:54.158Z,99.90
2018-01-20T10:22:21.825Z,99.90
2018-01-20T10:24:50.220Z,99.90
2018-01-20T10:27:18.615Z,99.90
2018-01-20T10:29:46.308Z,99.90
2018-01-20T10:32:13.949Z,99.90
2018-01-20T10:34:41.630Z,99.90
2018-01-20T10:37:09.260Z,99.90
2018-01-20T10:39:36.985Z,99.90
2018-01-20T10:42:04.652Z,99.90
2018-01-20T10:44:32.314Z,99.90
2018-01-20T10:46:59.951Z,99.90
2018-01-20T10:49:27.595Z,99.90
2018-01-20T10:51:55.245Z,99.80
2018-01-20T10:54:22.865Z,99.40
2018-01-20T10:56:51.311Z,98.80
2018-01-20T10:59:18.958Z,98.80
2018-01-20T11:01:46.595Z,98.90
2018-01-20T11:04:14.260Z,98.20
2018-01-20T11:06:41.888Z,97.70
2018-01-20T11:09:10.286Z,97.80
2018-01-20T11:11:38.703Z,98.10
2018-01-20T11:14:06.334Z,98.10
2018-01-20T11:16:34.134Z,97.30
2018-01-20T11:19:01.797Z,97.50
2018-01-20T11:21:29.443Z,97.10
2018-01-20T11:23:57.091Z,97.60
2018-01-20T11:26:24.711Z,97.30
2018-01-20T11:28:52.339Z,98.10
2018-01-20T11:31:19.950Z,97.10
2018-01-20T11:33:48.389Z,97.80
2018-01-20T11:36:16.022Z,97.80
2018-01-20T11:38:43.656Z,97.20
2018-01-20T11:41:12.065Z,96.80
2018-01-20T11:43:39.712Z,96.80
2018-01-20T11:46:07.373Z,96.80
2018-01-20T11:48:35.060Z,96.50
2018-01-20T11:51:02.707Z,96.90
2018-01-20T11:53:30.349Z,96.50
2018-01-20T11:55:58.030Z,97.20
2018-01-20T11:58:25.679Z,96.60
2018-01-20T12:00:53.295Z,96.10
2018-01-20T12:03:20.928Z,95.30
2018-01-20T12:05:48.580Z,95.50
2018-01-20T12:08:16.205Z,95.40
2018-01-20T12:10:44.654Z,95.00
2018-01-20T12:13:12.280Z,95.00
2018-01-20T12:15:39.976Z,95.50
2018-01-20T12:18:07.741Z,95.60
2018-01-20T12:20:35.409Z,95.70
2018-01-20T12:23:03.075Z,95.40
2018-01-20T12:25:30.727Z,95.50
2018-01-20T12:27:58.351Z,94.80
2018-01-20T12:30:26.026Z,94.70
2018-01-20T12:32:53.679Z,93.90
2018-01-20T12:35:21.301Z,94.60
2018-01-20T12:37:49.672Z,95.00
2018-01-20T12:40:17.329Z,95.00
2018-01-20T12:42:44.951Z,94.50
2018-01-20T12:45:12.605Z,93.70
2018-01-20T12:47:40.258Z,94.30
2018-01-20T12:50:07.945Z,94.40
2018-01-20T12:52:35.619Z,94.30
2018-01-20T12:55:03.242Z,94.90
2018-01-20T12:57:30.907Z,94.50
2018-01-20T12:59:58.555Z,94.50
2018-01-20T13:02:26.179Z,95.90
2018-01-20T13:04:53.835Z,95.80
2018-01-20T13:07:21.461Z,96.10
2018-01-20T13:09:49.092Z,96.40
2018-01-20T13:12:17.518Z,96.90
2018-01-20T13:14:45.138Z,96.90
2018-01-20T13:17:12.761Z,96.90
2018-01-20T13:19:40.404Z,97.10
2018-01-20T13:22:08.045Z,97.10
2018-01-20T13:24:35.723Z,97.20
2018-01-20T13:27:03.368Z,97.90
2018-01-20T13:29:31.014Z,96.90
2018-01-20T13:31:58.654Z,97.60
2018-01-20T13:34:27.112Z,97.50
2018-01-20T13:36:54.839Z,97.50
2018-01-20T13:39:22.492Z,97.10
2018-01-20T13:41:50.273Z,97.90
2018-01-20T13:44:18.004Z,97.90
2018-01-20T13:46:45.722Z,98.30
2018-01-20T13:49:13.347Z,98.90
2018-01-20T13:51:41.125Z,98.90
2018-01-20T13:54:08.764Z,98.60
2018-01-20T13:56:36.406Z,98.90
2018-01-20T13:59:04.849Z,99.50
2018-01-20T14:01:32.475Z,99.50
2018-01-20T14:04:00.173Z,99.50
2018-01-20T14:06:27.833Z,99.70
2018-01-20T14:08:56.462Z,99.70
2018-01-20T14:11:24.145Z,99.80
2018-01-20T14:13:51.792Z,99.90
2018-01-20T14:16:19.467Z,99.90
2018-01-20T14:18:47.092Z,99.90
2018-01-20T14:21:15.501Z,99.90
2018-01-20T14:23:43.205Z,99.90
2018-01-20T14:26:10.840Z,99.90
2018-01-20T14:28:38.472Z,99.90
2018-01-20T14:31:06.151Z,99.90
2018-01-20T14:33:33.797Z,99.90
2018-01-20T14:36:01.419Z,99.90
2018-01-20T14:38:29.110Z,99.90
2018-01-20T14:40:57.513Z,99.90
2018-01-20T14:43:25.167Z,99.90
2018-01-20T14:45:52.811Z,99.90
2018-01-20T14:48:21.252Z,99.90
2018-01-20T14:50:48.880Z,99.90
2018-01-20T14:53:16.551Z,99.90
2018-01-20T14:55:45.236Z,99.90
2018-01-20T14:58:12.864Z,99.90
2018-01-20T15:00:41.278Z,99.90
2018-01-20T15:03:08.967Z,99.90
2018-01-20T15:05:36.598Z,99.90
2018-01-20T15:08:04.215Z,99.90
2018-01-20T15:10:32.663Z,99.90
2018-01-20T15:13:00.364Z,99.90
2018-01-20T15:15:28.769Z,99.90
2018-01-20T15:17:56.433Z,99.90
2018-01-20T15:20:24.119Z,99.90
2018-01-20T15:22:51.825Z,99.90
2018-01-20T15:25:20.208Z,99.90
2018-01-20T15:27:48.660Z,99.90
2018-01-20T15:30:16.283Z,99.90
2018-01-20T15:32:43.958Z,99.90
2018-01-20T15:35:11.628Z,99.90
2018-01-20T15:37:39.248Z,99.90
2018-01-20T15:40:07.646Z,99.90
2018-01-20T15:42:35.273Z,99.90
2018-01-20T15:45:03.707Z,99.90
2018-01-20T15:47:31.323Z,99.90
2018-01-20T15:49:59.717Z,99.90
2018-01-20T15:52:27.371Z,99.90
2018-01-20T15:54:55.751Z,99.90
2018-01-20T15:57:23.379Z,99.90
2018-01-20T15:59:51.040Z,99.90
2018-01-20T16:02:18.663Z,99.90
2018-01-20T16:04:46.306Z,99.90
2018-01-20T16:07:14.953Z,99.90
2018-01-20T16:09:42.576Z,99.90
2018-01-20T16:12:10.212Z,99.90
2018-01-20T16:14:37.895Z,99.90
2018-01-20T16:17:05.519Z,99.90
2018-01-20T16:19:33.973Z,99.90
2018-01-20T16:22:01.601Z,99.90
2018-01-20T16:24:29.216Z,99.90
2018-01-20T16:26:57.614Z,99.90
2018-01-20T16:29:25.269Z,99.90
2018-01-20T16:31:52.947Z,99.90
2018-01-20T16:34:20.567Z,99.90
2018-01-20T16:36:48.230Z,99.90
2018-01-20T16:39:15.855Z,99.90
2018-01-20T16:41:43.476Z,99.90
2018-01-20T16:44:11.121Z,99.90
2018-01-20T16:46:39.536Z,99.90
2018-01-20T16:49:07.147Z,99.90
2018-01-20T16:51:35.774Z,99.90
2018-01-20T16:54:03.426Z,99.90
2018-01-20T16:56:31.086Z,99.90
2018-01-20T16:58:58.729Z,99.90
2018-01-20T17:01:27.164Z,99.90
2018-01-20T17:03:54.784Z,99.90
2018-01-20T17:06:23.163Z,99.90
2018-01-20T17:08:51.578Z,99.90
2018-01-20T17:11:19.201Z,99.90
2018-01-20T17:13:47.650Z,99.90
2018-01-20T17:16:15.343Z,99.90
2018-01-20T17:18:43.003Z,99.90
2018-01-20T17:21:11.416Z,99.90
2018-01-20T17:23:39.060Z,99.90
2018-01-20T17:26:06.746Z,99.90
2018-01-20T17:28:34.386Z,99.90
2018-01-20T17:31:02.045Z,99.90
2018-01-20T17:33:29.693Z,99.90
2018-01-20T17:35:58.096Z,99.90
2018-01-20T17:38:25.743Z,99.90
2018-01-20T17:40:53.393Z,99.90
2018-01-20T17:43:21.804Z,99.90
2018-01-20T17:45:49.496Z,99.90
2018-01-20T17:48:17.143Z,99.90
2018-01-20T17:50:44.802Z,99.90
2018-01-20T17:53:12.468Z,99.90
2018-01-20T17:55:40.122Z,99.90
2018-01-20T17:58:07.794Z,99.90
2018-01-20T18:00:35.436Z,99.90
2018-01-20T18:03:03.059Z,99.90
2018-01-20T18:05:31.486Z,99.90
2018-01-20T18:07:59.145Z,99.90
2018-01-20T18:10:26.793Z,99.90
2018-01-20T18:12:54.421Z,99.90
2018-01-20T18:15:22.923Z,99.90
2018-01-20T18:17:50.562Z,99.90
2018-01-20T18:20:18.958Z,99.90
2018-01-20T18:22:46.767Z,99.90
2018-01-20T18:25:15.173Z,99.90
2018-01-20T18:27:42.795Z,99.90
2018-01-20T18:30:10.463Z,99.90
2018-01-20T18:32:38.127Z,99.90
2018-01-20T18:35:05.796Z,99.90
2018-01-20T18:37:33.432Z,99.90
2018-01-20T18:40:01.070Z,99.90
2018-01-20T18:42:28.745Z,99.90
2018-01-20T18:44:56.381Z,99.90
2018-01-20T18:47:24.778Z,99.90
2018-01-20T18:49:52.438Z,99.90
2018-01-20T18:52:20.093Z,99.90
2018-01-20T18:54:48.527Z,99.90
2018-01-20T18:57:16.219Z,99.90
2018-01-20T18:59:43.861Z,99.90
2018-01-20T19:02:11.479Z,99.90
2018-01-20T19:04:39.129Z,99.90
2018-01-20T19:07:06.773Z,99.90
2018-01-20T19:09:35.183Z,99.90
2018-01-20T19:12:03.463Z,99.90
2018-01-20T19:14:31.147Z,99.90
2018-01-20T19:16:59.016Z,99.90
2018-01-20T19:19:26.636Z,99.90
2018-01-20T19:21:54.286Z,99.90
2018-01-20T19:24:22.771Z,99.90
2018-01-20T19:26:50.520Z,99.90
2018-01-20T19:29:18.267Z,99.90
2018-01-20T19:31:45.982Z,99.90
2018-01-20T19:34:13.648Z,99.90
2018-01-20T19:36:41.295Z,99.90
2018-01-20T19:39:08.995Z,99.90
2018-01-20T19:41:36.670Z,99.90
2018-01-20T19:44:04.305Z,99.90
2018-01-20T19:46:31.930Z,99.90
2018-01-20T19:49:01.354Z,99.90
2018-01-20T19:51:28.969Z,99.90
2018-01-20T19:53:57.614Z,99.90
2018-01-20T19:56:25.260Z,99.90
2018-01-20T19:58:53.751Z,99.90
2018-01-20T20:01:21.402Z,99.90
2018-01-20T20:03:49.092Z,99.90
2018-01-20T20:06:16.736Z,99.90
2018-01-20T20:08:44.405Z,99.90
2018-01-20T20:11:12.078Z,99.90
2018-01-20T20:13:39.717Z,99.90
2018-01-20T20:16:07.350Z,99.90
2018-01-20T20:18:35.793Z,99.90
2018-01-20T20:21:03.449Z,99.90
2018-01-20T20:23:31.069Z,99.90
2018-01-20T20:25:58.763Z,99.90
2018-01-20T20:28:26.387Z,99.90
2018-01-20T20:30:54.026Z,99.90
2018-01-20T20:33:21.689Z,99.90
2018-01-20T20:35:49.378Z,99.90
2018-01-20T20:38:17.805Z,99.90
2018-01-20T20:40:45.445Z,99.90
2018-01-20T20:43:13.150Z,99.90
2018-01-20T20:45:40.835Z,99.90
2018-01-20T20:48:09.230Z,99.90
2018-01-20T20:50:36.882Z,99.90
2018-01-20T20:53:04.671Z,99.90
2018-01-20T20:55:32.303Z,99.90
2018-01-20T20:58:00.692Z,99.90
2018-01-20T21:00:28.377Z,99.90
2018-01-20T21:02:55.983Z,99.90
2018-01-20T21:05:23.635Z,99.90
2018-01-20T21:07:51.259Z,99.90
2018-01-20T21:10:18.889Z,99.90
2018-01-20T21:12:47.340Z,99.90
2018-01-20T21:15:14.995Z,99.90
2018-01-20T21:17:42.694Z,99.90
2018-01-20T21:20:11.109Z,99.90
2018-01-20T21:22:38.738Z,99.90
2018-01-20T21:25:07.179Z,99.90
2018-01-20T21:27:34.793Z,99.90
2018-01-20T21:30:02.415Z,99.90
2018-01-20T21:32:30.090Z,99.90
2018-01-20T21:34:58.512Z,99.90
2018-01-20T21:37:26.139Z,99.90
2018-01-20T21:39:54.579Z,99.90
2018-01-20T21:42:22.252Z,99.90
2018-01-20T21:44:50.123Z,99.90
2018-01-20T21:47:17.801Z,99.90
2018-01-20T21:49:46.195Z,99.90
2018-01-20T21:52:13.892Z,99.90
2018-01-20T21:54:41.505Z,99.90
2018-01-20T21:57:09.919Z,99.90
2018-01-20T21:59:37.599Z,99.90
2018-01-20T22:02:05.246Z,99.90
2018-01-20T22:04:32.879Z,99.90
2018-01-20T22:07:01.351Z,99.90
2018-01-20T22:09:29.769Z,99.90
2018-01-20T22:11:57.413Z,99.90
2018-01-20T22:14:25.125Z,99.90
2018-01-20T22:16:52.786Z,99.90
2018-01-20T22:19:20.424Z,99.90
2018-01-20T22:21:48.087Z,99.90
2018-01-20T22:24:15.725Z,99.90
2018-01-20T22:26:43.361Z,99.90
2018-01-20T22:29:11.827Z,99.90
2018-01-20T22:31:39.467Z,99.90
2018-01-20T22:34:07.087Z,99.90
2018-01-20T22:36:34.759Z,99.90
2018-01-20T22:39:02.398Z,99.90
2018-01-20T22:41:30.053Z,99.90
2018-01-20T22:43:58.518Z,99.90
2018-01-20T22:46:26.143Z,99.90
2018-01-20T22:48:53.785Z,99.90
2018-01-20T22:51:21.478Z,99.90
2018-01-20T22:53:49.110Z,99.90
2018-01-20T22:56:16.740Z,99.90
2018-01-20T22:58:45.211Z,99.90
2018-01-20T23:01:19.255Z,99.90
2018-01-20T23:03:46.963Z,99.90
2018-01-20T23:06:14.604Z,99.90
2018-01-20T23:08:42.277Z,99.90
2018-01-20T23:11:09.977Z,99.90
2018-01-20T23:13:38.363Z,99.90
2018-01-20T23:16:06.805Z,99.90
2018-01-20T23:18:34.430Z,99.90
2018-01-20T23:21:02.108Z,99.90
2018-01-20T23:23:29.736Z,99.90
2018-01-20T23:25:57.378Z,99.90
2018-01-20T23:28:25.819Z,99.90
2018-01-20T23:30:53.464Z,99.90
2018-01-20T23:33:21.133Z,99.90
2018-01-20T23:35:48.834Z,99.90
2018-01-20T23:38:16.474Z,99.90
2018-01-20T23:40:44.120Z,99.90
2018-01-20T23:43:11.777Z,99.90
2018-01-20T23:45:39.423Z,99.90
2018-01-20T23:48:07.034Z,99.90
2018-01-20T23:50:34.716Z,99.90
2018-01-20T23:53:03.109Z,99.90
2018-01-20T23:55:30.793Z,99.90
2018-01-20T23:57:58.424Z,99.90
